sensor_id;sensor_type;location;lat;lon;timestamp;P1;durP1;ratioP1;P2;durP2;ratioP2
37971;SDS011;23794;48.234;8.344;2023-03-17T00:01:32;3.28;;;1.63;;
37971;SDS011;23794;48.234;8.344;2023-03-17T00:03:59;2.83;;;1.42;;
37971;SDS011;23794;48.234;8.344;2023-03-17T00:06:27;3.05;;;1.45;;
37971;SDS011;23794;48.234;8.344;2023-03-17T00:08:56;2.85;;;1.45;;
37971;SDS011;23794;48.234;8.344;2023-03-17T00:11:23;2.97;;;1.20;;
37971;SDS011;23794;48.234;8.344;2023-03-17T00:13:51;4.68;;;1.50;;
37971;SDS011;23794;48.234;8.344;2023-03-17T00:16:22;4.93;;;1.33;;
37971;SDS011;23794;48.234;8.344;2023-03-17T00:18:52;2.08;;;1.33;;
37971;SDS011;23794;48.234;8.344;2023-03-17T00:21:21;1.60;;;1.10;;
37971;SDS011;23794;48.234;8.344;2023-03-17T00:23:52;2.50;;;1.50;;
37971;SDS011;23794;48.234;8.344;2023-03-17T00:26:20;2.50;;;1.30;;
37971;SDS011;23794;48.234;8.344;2023-03-17T00:28:48;3.13;;;1.70;;
37971;SDS011;23794;48.234;8.344;2023-03-17T00:31:17;2.83;;;1.83;;
37971;SDS011;23794;48.234;8.344;2023-03-17T00:33:47;2.60;;;1.35;;
37971;SDS011;23794;48.234;8.344;2023-03-17T00:36:20;2.45;;;1.38;;
37971;SDS011;23794;48.234;8.344;2023-03-17T00:38:49;3.70;;;1.30;;
37971;SDS011;23794;48.234;8.344;2023-03-17T00:41:16;3.33;;;1.30;;
37971;SDS011;23794;48.234;8.344;2023-03-17T00:43:43;2.38;;;1.77;;
37971;SDS011;23794;48.234;8.344;2023-03-17T00:46:11;2.10;;;1.52;;
37971;SDS011;23794;48.234;8.344;2023-03-17T00:48:40;3.10;;;1.50;;
37971;SDS011;23794;48.234;8.344;2023-03-17T00:51:10;3.53;;;1.80;;
37971;SDS011;23794;48.234;8.344;2023-03-17T00:53:37;3.80;;;1.42;;
37971;SDS011;23794;48.234;8.344;2023-03-17T00:56:08;2.20;;;1.30;;
37971;SDS011;23794;48.234;8.344;2023-03-17T00:58:38;2.53;;;1.10;;
37971;SDS011;23794;48.234;8.344;2023-03-17T01:01:05;3.53;;;1.00;;
37971;SDS011;23794;48.234;8.344;2023-03-17T01:03:32;3.67;;;1.30;;
37971;SDS011;23794;48.234;8.344;2023-03-17T01:06:00;4.05;;;1.10;;
37971;SDS011;23794;48.234;8.344;2023-03-17T01:08:29;1.95;;;1.00;;
37971;SDS011;23794;48.234;8.344;2023-03-17T01:10:57;1.67;;;1.00;;
37971;SDS011;23794;48.234;8.344;2023-03-17T01:13:24;1.63;;;1.20;;
37971;SDS011;23794;48.234;8.344;2023-03-17T01:15:51;2.13;;;1.05;;
37971;SDS011;23794;48.234;8.344;2023-03-17T01:18:19;2.60;;;1.30;;
37971;SDS011;23794;48.234;8.344;2023-03-17T01:20:48;1.95;;;1.10;;
37971;SDS011;23794;48.234;8.344;2023-03-17T01:23:16;2.05;;;0.90;;
37971;SDS011;23794;48.234;8.344;2023-03-17T01:25:43;2.35;;;1.00;;
37971;SDS011;23794;48.234;8.344;2023-03-17T01:28:13;2.30;;;1.30;;
37971;SDS011;23794;48.234;8.344;2023-03-17T01:30:45;3.30;;;1.05;;
37971;SDS011;23794;48.234;8.344;2023-03-17T01:33:12;2.25;;;1.13;;
37971;SDS011;23794;48.234;8.344;2023-03-17T01:35:40;2.22;;;1.08;;
37971;SDS011;23794;48.234;8.344;2023-03-17T01:38:09;2.63;;;1.20;;
37971;SDS011;23794;48.234;8.344;2023-03-17T01:40:41;1.30;;;0.80;;
37971;SDS011;23794;48.234;8.344;2023-03-17T01:51:26;1.98;;;0.90;;
37971;SDS011;23794;48.234;8.344;2023-03-17T01:53:59;1.95;;;1.23;;
37971;SDS011;23794;48.234;8.344;2023-03-17T01:56:28;2.33;;;0.82;;
37971;SDS011;23794;48.234;8.344;2023-03-17T01:58:55;3.22;;;0.68;;
37971;SDS011;23794;48.234;8.344;2023-03-17T02:01:27;2.47;;;0.63;;
37971;SDS011;23794;48.234;8.344;2023-03-17T02:03:58;2.78;;;0.70;;
37971;SDS011;23794;48.234;8.344;2023-03-17T02:06:26;2.17;;;0.70;;
37971;SDS011;23794;48.234;8.344;2023-03-17T02:08:52;1.60;;;1.13;;
37971;SDS011;23794;48.234;8.344;2023-03-17T02:11:19;2.45;;;0.80;;
37971;SDS011;23794;48.234;8.344;2023-03-17T02:13:47;2.35;;;0.73;;
37971;SDS011;23794;48.234;8.344;2023-03-17T02:16:14;1.15;;;0.50;;
37971;SDS011;23794;48.234;8.344;2023-03-17T02:18:45;1.17;;;0.63;;
37971;SDS011;23794;48.234;8.344;2023-03-17T02:21:34;0.85;;;0.55;;
37971;SDS011;23794;48.234;8.344;2023-03-17T02:24:11;1.20;;;0.80;;
37971;SDS011;23794;48.234;8.344;2023-03-17T02:26:44;1.55;;;0.63;;
37971;SDS011;23794;48.234;8.344;2023-03-17T02:29:12;2.00;;;1.38;;
37971;SDS011;23794;48.234;8.344;2023-03-17T02:31:39;1.23;;;0.80;;
37971;SDS011;23794;48.234;8.344;2023-03-17T02:34:06;2.17;;;0.52;;
37971;SDS011;23794;48.234;8.344;2023-03-17T02:36:32;2.10;;;0.52;;
37971;SDS011;23794;48.234;8.344;2023-03-17T02:38:59;1.20;;;0.63;;
37971;SDS011;23794;48.234;8.344;2023-03-17T02:41:28;0.63;;;0.43;;
37971;SDS011;23794;48.234;8.344;2023-03-17T02:43:55;2.38;;;0.73;;
37971;SDS011;23794;48.234;8.344;2023-03-17T02:46:22;1.40;;;0.70;;
37971;SDS011;23794;48.234;8.344;2023-03-17T02:48:49;2.10;;;0.60;;
37971;SDS011;23794;48.234;8.344;2023-03-17T02:51:16;1.40;;;0.60;;
37971;SDS011;23794;48.234;8.344;2023-03-17T02:53:43;1.23;;;0.60;;
37971;SDS011;23794;48.234;8.344;2023-03-17T02:56:09;1.65;;;0.50;;
37971;SDS011;23794;48.234;8.344;2023-03-17T02:58:38;0.35;;;0.35;;
37971;SDS011;23794;48.234;8.344;2023-03-17T03:01:05;2.20;;;0.60;;
37971;SDS011;23794;48.234;8.344;2023-03-17T03:03:31;0.95;;;0.50;;
37971;SDS011;23794;48.234;8.344;2023-03-17T03:06:01;1.15;;;0.55;;
37971;SDS011;23794;48.234;8.344;2023-03-17T03:08:29;1.25;;;0.52;;
37971;SDS011;23794;48.234;8.344;2023-03-17T03:10:56;1.40;;;0.50;;
37971;SDS011;23794;48.234;8.344;2023-03-17T03:13:22;1.73;;;0.93;;
37971;SDS011;23794;48.234;8.344;2023-03-17T03:15:49;1.65;;;0.40;;
37971;SDS011;23794;48.234;8.344;2023-03-17T03:18:18;1.38;;;0.52;;
37971;SDS011;23794;48.234;8.344;2023-03-17T03:20:45;1.73;;;0.50;;
37971;SDS011;23794;48.234;8.344;2023-03-17T03:23:12;0.60;;;0.43;;
37971;SDS011;23794;48.234;8.344;2023-03-17T03:25:40;0.80;;;0.50;;
37971;SDS011;23794;48.234;8.344;2023-03-17T03:28:09;1.30;;;0.45;;
37971;SDS011;23794;48.234;8.344;2023-03-17T03:30:36;1.60;;;0.60;;
37971;SDS011;23794;48.234;8.344;2023-03-17T03:33:03;0.95;;;0.47;;
37971;SDS011;23794;48.234;8.344;2023-03-17T03:35:35;1.35;;;0.60;;
37971;SDS011;23794;48.234;8.344;2023-03-17T03:38:02;1.23;;;0.45;;
37971;SDS011;23794;48.234;8.344;2023-03-17T03:40:28;1.60;;;0.63;;
37971;SDS011;23794;48.234;8.344;2023-03-17T03:42:55;1.20;;;0.52;;
37971;SDS011;23794;48.234;8.344;2023-03-17T03:45:28;3.67;;;0.82;;
37971;SDS011;23794;48.234;8.344;2023-03-17T03:47:57;0.98;;;0.60;;
37971;SDS011;23794;48.234;8.344;2023-03-17T03:50:24;1.38;;;0.63;;
37971;SDS011;23794;48.234;8.344;2023-03-17T03:52:51;1.00;;;0.57;;
37971;SDS011;23794;48.234;8.344;2023-03-17T03:55:18;2.10;;;0.88;;
37971;SDS011;23794;48.234;8.344;2023-03-17T03:57:44;1.70;;;0.80;;
37971;SDS011;23794;48.234;8.344;2023-03-17T04:00:11;3.03;;;1.05;;
37971;SDS011;23794;48.234;8.344;2023-03-17T04:02:42;5.10;;;1.10;;
37971;SDS011;23794;48.234;8.344;2023-03-17T04:05:13;4.15;;;1.27;;
37971;SDS011;23794;48.234;8.344;2023-03-17T04:07:40;2.28;;;1.02;;
37971;SDS011;23794;48.234;8.344;2023-03-17T04:10:09;2.65;;;0.90;;
37971;SDS011;23794;48.234;8.344;2023-03-17T04:12:39;2.25;;;1.10;;
37971;SDS011;23794;48.234;8.344;2023-03-17T04:15:07;2.75;;;1.25;;
37971;SDS011;23794;48.234;8.344;2023-03-17T04:17:38;4.43;;;1.10;;
37971;SDS011;23794;48.234;8.344;2023-03-17T04:20:07;1.25;;;0.60;;
37971;SDS011;23794;48.234;8.344;2023-03-17T04:22:35;1.60;;;0.80;;
37971;SDS011;23794;48.234;8.344;2023-03-17T04:25:05;2.55;;;0.90;;
37971;SDS011;23794;48.234;8.344;2023-03-17T04:27:32;3.10;;;1.42;;
37971;SDS011;23794;48.234;8.344;2023-03-17T04:29:59;3.97;;;1.13;;
37971;SDS011;23794;48.234;8.344;2023-03-17T04:32:27;2.17;;;0.90;;
37971;SDS011;23794;48.234;8.344;2023-03-17T04:34:53;2.92;;;1.13;;
37971;SDS011;23794;48.234;8.344;2023-03-17T04:37:25;1.58;;;0.90;;
37971;SDS011;23794;48.234;8.344;2023-03-17T04:39:52;2.70;;;1.05;;
37971;SDS011;23794;48.234;8.344;2023-03-17T04:42:20;1.85;;;0.77;;
37971;SDS011;23794;48.234;8.344;2023-03-17T04:44:48;2.70;;;0.90;;
37971;SDS011;23794;48.234;8.344;2023-03-17T04:47:17;1.58;;;0.80;;
37971;SDS011;23794;48.234;8.344;2023-03-17T04:49:47;2.92;;;1.00;;
37971;SDS011;23794;48.234;8.344;2023-03-17T04:52:14;2.10;;;0.80;;
37971;SDS011;23794;48.234;8.344;2023-03-17T04:54:41;2.75;;;1.20;;
37971;SDS011;23794;48.234;8.344;2023-03-17T04:57:08;2.13;;;0.70;;
37971;SDS011;23794;48.234;8.344;2023-03-17T04:59:35;1.63;;;0.52;;
37971;SDS011;23794;48.234;8.344;2023-03-17T05:02:02;1.35;;;0.55;;
37971;SDS011;23794;48.234;8.344;2023-03-17T05:04:28;1.85;;;0.90;;
37971;SDS011;23794;48.234;8.344;2023-03-17T05:06:57;1.73;;;0.90;;
37971;SDS011;23794;48.234;8.344;2023-03-17T05:09:24;1.63;;;0.98;;
37971;SDS011;23794;48.234;8.344;2023-03-17T05:11:52;1.60;;;0.80;;
37971;SDS011;23794;48.234;8.344;2023-03-17T05:14:19;3.40;;;0.65;;
37971;SDS011;23794;48.234;8.344;2023-03-17T05:16:46;2.78;;;0.77;;
37971;SDS011;23794;48.234;8.344;2023-03-17T05:19:13;3.00;;;0.68;;
37971;SDS011;23794;48.234;8.344;2023-03-17T05:21:40;2.50;;;1.00;;
37971;SDS011;23794;48.234;8.344;2023-03-17T05:24:08;2.92;;;0.75;;
37971;SDS011;23794;48.234;8.344;2023-03-17T05:26:34;1.80;;;0.60;;
37971;SDS011;23794;48.234;8.344;2023-03-17T05:29:01;2.65;;;0.90;;
37971;SDS011;23794;48.234;8.344;2023-03-17T05:31:28;1.85;;;0.75;;
37971;SDS011;23794;48.234;8.344;2023-03-17T05:33:58;2.70;;;0.60;;
37971;SDS011;23794;48.234;8.344;2023-03-17T05:36:25;2.53;;;1.08;;
37971;SDS011;23794;48.234;8.344;2023-03-17T05:38:51;2.25;;;0.60;;
37971;SDS011;23794;48.234;8.344;2023-03-17T05:41:18;1.90;;;0.45;;
37971;SDS011;23794;48.234;8.344;2023-03-17T05:43:45;2.08;;;0.70;;
37971;SDS011;23794;48.234;8.344;2023-03-17T05:46:12;1.45;;;0.50;;
37971;SDS011;23794;48.234;8.344;2023-03-17T05:48:39;1.77;;;0.60;;
37971;SDS011;23794;48.234;8.344;2023-03-17T05:51:06;3.65;;;0.50;;
37971;SDS011;23794;48.234;8.344;2023-03-17T05:53:33;0.55;;;0.30;;
37971;SDS011;23794;48.234;8.344;2023-03-17T05:56:01;1.85;;;0.40;;
37971;SDS011;23794;48.234;8.344;2023-03-17T05:58:28;2.25;;;0.55;;
37971;SDS011;23794;48.234;8.344;2023-03-17T06:00:55;1.52;;;0.50;;
37971;SDS011;23794;48.234;8.344;2023-03-17T06:03:22;1.13;;;0.60;;
37971;SDS011;23794;48.234;8.344;2023-03-17T06:05:49;1.95;;;0.60;;
37971;SDS011;23794;48.234;8.344;2023-03-17T06:08:15;1.10;;;0.50;;
37971;SDS011;23794;48.234;8.344;2023-03-17T06:10:42;3.08;;;0.85;;
37971;SDS011;23794;48.234;8.344;2023-03-17T06:13:09;0.73;;;0.50;;
37971;SDS011;23794;48.234;8.344;2023-03-17T06:15:36;2.83;;;0.80;;
37971;SDS011;23794;48.234;8.344;2023-03-17T06:18:03;2.42;;;0.85;;
37971;SDS011;23794;48.234;8.344;2023-03-17T06:20:31;1.42;;;0.70;;
37971;SDS011;23794;48.234;8.344;2023-03-17T06:22:59;1.83;;;0.90;;
37971;SDS011;23794;48.234;8.344;2023-03-17T06:25:30;1.00;;;0.50;;
37971;SDS011;23794;48.234;8.344;2023-03-17T06:27:58;1.73;;;0.60;;
37971;SDS011;23794;48.234;8.344;2023-03-17T06:30:28;1.10;;;0.63;;
37971;SDS011;23794;48.234;8.344;2023-03-17T06:32:55;1.60;;;0.70;;
37971;SDS011;23794;48.234;8.344;2023-03-17T06:35:22;1.40;;;0.80;;
37971;SDS011;23794;48.234;8.344;2023-03-17T06:37:50;2.97;;;0.90;;
37971;SDS011;23794;48.234;8.344;2023-03-17T06:40:17;5.38;;;1.10;;
37971;SDS011;23794;48.234;8.344;2023-03-17T06:42:43;0.93;;;0.70;;
37971;SDS011;23794;48.234;8.344;2023-03-17T06:45:12;2.28;;;1.10;;
37971;SDS011;23794;48.234;8.344;2023-03-17T06:47:39;2.38;;;1.00;;
37971;SDS011;23794;48.234;8.344;2023-03-17T06:50:06;2.15;;;1.13;;
37971;SDS011;23794;48.234;8.344;2023-03-17T06:52:37;3.13;;;0.95;;
37971;SDS011;23794;48.234;8.344;2023-03-17T06:55:05;2.10;;;0.88;;
37971;SDS011;23794;48.234;8.344;2023-03-17T06:57:32;2.55;;;1.13;;
37971;SDS011;23794;48.234;8.344;2023-03-17T06:59:59;2.80;;;1.20;;
37971;SDS011;23794;48.234;8.344;2023-03-17T07:02:26;3.05;;;1.15;;
37971;SDS011;23794;48.234;8.344;2023-03-17T07:04:52;1.73;;;1.10;;
37971;SDS011;23794;48.234;8.344;2023-03-17T07:07:19;3.47;;;1.15;;
37971;SDS011;23794;48.234;8.344;2023-03-17T07:09:46;2.10;;;0.80;;
37971;SDS011;23794;48.234;8.344;2023-03-17T07:12:13;2.25;;;1.13;;
37971;SDS011;23794;48.234;8.344;2023-03-17T07:14:40;1.88;;;0.80;;
37971;SDS011;23794;48.234;8.344;2023-03-17T07:17:09;1.83;;;0.90;;
37971;SDS011;23794;48.234;8.344;2023-03-17T07:19:38;2.33;;;0.90;;
37971;SDS011;23794;48.234;8.344;2023-03-17T07:22:05;2.60;;;0.70;;
37971;SDS011;23794;48.234;8.344;2023-03-17T07:24:33;1.33;;;0.70;;
37971;SDS011;23794;48.234;8.344;2023-03-17T07:27:02;3.22;;;1.10;;
37971;SDS011;23794;48.234;8.344;2023-03-17T07:29:29;2.25;;;0.90;;
37971;SDS011;23794;48.234;8.344;2023-03-17T07:31:57;0.98;;;0.52;;
37971;SDS011;23794;48.234;8.344;2023-03-17T07:34:24;1.08;;;0.68;;
37971;SDS011;23794;48.234;8.344;2023-03-17T07:36:50;1.45;;;0.70;;
37971;SDS011;23794;48.234;8.344;2023-03-17T07:39:17;1.23;;;0.80;;
37971;SDS011;23794;48.234;8.344;2023-03-17T07:41:44;2.38;;;0.90;;
37971;SDS011;23794;48.234;8.344;2023-03-17T07:44:12;1.67;;;0.75;;
37971;SDS011;23794;48.234;8.344;2023-03-17T07:46:38;3.47;;;0.82;;
37971;SDS011;23794;48.234;8.344;2023-03-17T07:49:05;2.00;;;0.90;;
37971;SDS011;23794;48.234;8.344;2023-03-17T07:51:32;1.33;;;0.80;;
37971;SDS011;23794;48.234;8.344;2023-03-17T07:54:00;1.90;;;0.93;;
37971;SDS011;23794;48.234;8.344;2023-03-17T07:56:31;1.85;;;0.93;;
37971;SDS011;23794;48.234;8.344;2023-03-17T07:58:58;2.30;;;0.98;;
37971;SDS011;23794;48.234;8.344;2023-03-17T08:01:25;1.65;;;0.90;;
37971;SDS011;23794;48.234;8.344;2023-03-17T08:03:53;3.00;;;1.27;;
37971;SDS011;23794;48.234;8.344;2023-03-17T08:06:20;2.58;;;1.42;;
37971;SDS011;23794;48.234;8.344;2023-03-17T08:08:50;5.63;;;2.05;;
37971;SDS011;23794;48.234;8.344;2023-03-17T08:11:17;2.60;;;1.50;;
37971;SDS011;23794;48.234;8.344;2023-03-17T08:13:45;3.08;;;1.27;;
37971;SDS011;23794;48.234;8.344;2023-03-17T08:16:12;2.10;;;1.27;;
37971;SDS011;23794;48.234;8.344;2023-03-17T08:18:39;1.88;;;1.00;;
37971;SDS011;23794;48.234;8.344;2023-03-17T08:21:06;2.95;;;1.55;;
37971;SDS011;23794;48.234;8.344;2023-03-17T08:23:33;3.08;;;1.20;;
37971;SDS011;23794;48.234;8.344;2023-03-17T08:26:00;2.63;;;1.25;;
37971;SDS011;23794;48.234;8.344;2023-03-17T08:28:29;3.42;;;1.65;;
37971;SDS011;23794;48.234;8.344;2023-03-17T08:31:06;4.57;;;1.45;;
37971;SDS011;23794;48.234;8.344;2023-03-17T08:33:39;3.55;;;1.45;;
37971;SDS011;23794;48.234;8.344;2023-03-17T08:36:07;3.85;;;2.13;;
37971;SDS011;23794;48.234;8.344;2023-03-17T08:38:36;4.75;;;2.90;;
37971;SDS011;23794;48.234;8.344;2023-03-17T08:41:04;8.13;;;4.35;;
37971;SDS011;23794;48.234;8.344;2023-03-17T08:43:34;8.13;;;4.47;;
37971;SDS011;23794;48.234;8.344;2023-03-17T08:46:07;6.95;;;4.03;;
37971;SDS011;23794;48.234;8.344;2023-03-17T08:48:37;6.55;;;3.92;;
37971;SDS011;23794;48.234;8.344;2023-03-17T08:51:03;7.15;;;4.00;;
37971;SDS011;23794;48.234;8.344;2023-03-17T08:53:32;11.43;;;5.63;;
37971;SDS011;23794;48.234;8.344;2023-03-17T08:56:00;9.90;;;6.10;;
37971;SDS011;23794;48.234;8.344;2023-03-17T08:58:27;9.15;;;5.97;;
37971;SDS011;23794;48.234;8.344;2023-03-17T09:00:57;10.15;;;6.35;;
37971;SDS011;23794;48.234;8.344;2023-03-17T09:03:25;6.55;;;3.70;;
37971;SDS011;23794;48.234;8.344;2023-03-17T09:05:53;6.82;;;3.53;;
37971;SDS011;23794;48.234;8.344;2023-03-17T09:08:20;4.05;;;2.58;;
37971;SDS011;23794;48.234;8.344;2023-03-17T09:10:48;3.63;;;2.60;;
37971;SDS011;23794;48.234;8.344;2023-03-17T09:13:15;4.07;;;2.03;;
37971;SDS011;23794;48.234;8.344;2023-03-17T09:15:42;4.97;;;2.30;;
37971;SDS011;23794;48.234;8.344;2023-03-17T09:18:09;3.30;;;2.00;;
37971;SDS011;23794;48.234;8.344;2023-03-17T09:20:37;3.05;;;2.05;;
37971;SDS011;23794;48.234;8.344;2023-03-17T09:23:04;2.63;;;1.48;;
37971;SDS011;23794;48.234;8.344;2023-03-17T09:25:36;2.47;;;1.30;;
37971;SDS011;23794;48.234;8.344;2023-03-17T09:30:32;2.30;;;1.40;;
37971;SDS011;23794;48.234;8.344;2023-03-17T09:32:59;3.40;;;1.45;;
37971;SDS011;23794;48.234;8.344;2023-03-17T09:35:26;3.90;;;1.45;;
37971;SDS011;23794;48.234;8.344;2023-03-17T09:37:54;3.17;;;1.10;;
37971;SDS011;23794;48.234;8.344;2023-03-17T09:40:21;2.25;;;1.38;;
37971;SDS011;23794;48.234;8.344;2023-03-17T09:48:16;1.92;;;1.33;;
37971;SDS011;23794;48.234;8.344;2023-03-17T09:56:16;3.90;;;1.27;;
37971;SDS011;23794;48.234;8.344;2023-03-17T09:59:09;2.97;;;1.38;;
37971;SDS011;23794;48.234;8.344;2023-03-17T10:01:42;2.92;;;1.10;;
37971;SDS011;23794;48.234;8.344;2023-03-17T10:04:09;2.78;;;1.20;;
37971;SDS011;23794;48.234;8.344;2023-03-17T10:06:38;2.90;;;1.20;;
37971;SDS011;23794;48.234;8.344;2023-03-17T10:12:13;2.50;;;1.45;;
37971;SDS011;23794;48.234;8.344;2023-03-17T10:17:24;3.03;;;1.20;;
37971;SDS011;23794;48.234;8.344;2023-03-17T10:19:59;1.65;;;0.88;;
37971;SDS011;23794;48.234;8.344;2023-03-17T10:22:36;3.05;;;1.10;;
37971;SDS011;23794;48.234;8.344;2023-03-17T10:25:21;3.80;;;1.60;;
37971;SDS011;23794;48.234;8.344;2023-03-17T10:27:58;2.88;;;1.10;;
37971;SDS011;23794;48.234;8.344;2023-03-17T10:30:30;1.73;;;0.90;;
37971;SDS011;23794;48.234;8.344;2023-03-17T10:33:00;2.50;;;1.02;;
37971;SDS011;23794;48.234;8.344;2023-03-17T10:35:29;3.33;;;0.95;;
37971;SDS011;23794;48.234;8.344;2023-03-17T10:38:04;2.53;;;1.10;;
37971;SDS011;23794;48.234;8.344;2023-03-17T10:40:58;1.58;;;1.00;;
37971;SDS011;23794;48.234;8.344;2023-03-17T10:43:28;2.97;;;0.98;;
37971;SDS011;23794;48.234;8.344;2023-03-17T10:46:02;3.15;;;1.08;;
37971;SDS011;23794;48.234;8.344;2023-03-17T10:48:34;2.30;;;1.17;;
37971;SDS011;23794;48.234;8.344;2023-03-17T10:51:06;1.80;;;0.88;;
37971;SDS011;23794;48.234;8.344;2023-03-17T10:53:37;1.67;;;0.90;;
37971;SDS011;23794;48.234;8.344;2023-03-17T10:56:09;1.25;;;0.90;;
37971;SDS011;23794;48.234;8.344;2023-03-17T10:58:46;2.53;;;0.80;;
37971;SDS011;23794;48.234;8.344;2023-03-17T11:01:27;1.20;;;0.80;;
37971;SDS011;23794;48.234;8.344;2023-03-17T11:03:59;2.00;;;1.23;;
37971;SDS011;23794;48.234;8.344;2023-03-17T11:06:33;3.67;;;1.25;;
37971;SDS011;23794;48.234;8.344;2023-03-17T11:09:06;2.67;;;0.70;;
37971;SDS011;23794;48.234;8.344;2023-03-17T11:11:43;2.25;;;0.70;;
37971;SDS011;23794;48.234;8.344;2023-03-17T11:14:17;2.33;;;0.70;;
37971;SDS011;23794;48.234;8.344;2023-03-17T11:16:55;2.87;;;0.90;;
37971;SDS011;23794;48.234;8.344;2023-03-17T11:22:16;1.25;;;0.75;;
37971;SDS011;23794;48.234;8.344;2023-03-17T11:24:55;3.60;;;1.08;;
37971;SDS011;23794;48.234;8.344;2023-03-17T11:35:45;3.75;;;1.05;;
37971;SDS011;23794;48.234;8.344;2023-03-17T11:38:21;3.03;;;0.90;;
37971;SDS011;23794;48.234;8.344;2023-03-17T11:40:58;2.75;;;1.10;;
37971;SDS011;23794;48.234;8.344;2023-03-17T11:43:47;2.33;;;1.17;;
37971;SDS011;23794;48.234;8.344;2023-03-17T11:46:56;2.08;;;1.20;;
37971;SDS011;23794;48.234;8.344;2023-03-17T11:49:33;2.13;;;0.80;;
37971;SDS011;23794;48.234;8.344;2023-03-17T11:55:11;3.50;;;1.92;;
37971;SDS011;23794;48.234;8.344;2023-03-17T11:57:57;2.22;;;1.02;;
37971;SDS011;23794;48.234;8.344;2023-03-17T12:00:29;2.20;;;0.95;;
37971;SDS011;23794;48.234;8.344;2023-03-17T12:03:00;1.75;;;0.77;;
37971;SDS011;23794;48.234;8.344;2023-03-17T12:05:34;2.25;;;1.02;;
37971;SDS011;23794;48.234;8.344;2023-03-17T12:08:08;3.33;;;1.45;;
37971;SDS011;23794;48.234;8.344;2023-03-17T12:10:44;2.65;;;1.17;;
37971;SDS011;23794;48.234;8.344;2023-03-17T12:13:17;2.42;;;0.65;;
37971;SDS011;23794;48.234;8.344;2023-03-17T12:15:46;3.30;;;1.30;;
37971;SDS011;23794;48.234;8.344;2023-03-17T12:18:29;2.47;;;1.00;;
37971;SDS011;23794;48.234;8.344;2023-03-17T12:21:11;1.35;;;0.73;;
37971;SDS011;23794;48.234;8.344;2023-03-17T12:26:14;3.25;;;0.95;;
37971;SDS011;23794;48.234;8.344;2023-03-17T12:29:00;1.85;;;1.02;;
37971;SDS011;23794;48.234;8.344;2023-03-17T12:31:35;1.58;;;0.90;;
37971;SDS011;23794;48.234;8.344;2023-03-17T12:34:17;1.90;;;0.98;;
37971;SDS011;23794;48.234;8.344;2023-03-17T12:36:46;1.10;;;0.70;;
37971;SDS011;23794;48.234;8.344;2023-03-17T12:39:18;1.77;;;0.80;;
37971;SDS011;23794;48.234;8.344;2023-03-17T12:47:27;2.72;;;1.00;;
37971;SDS011;23794;48.234;8.344;2023-03-17T12:55:31;1.83;;;0.93;;
37971;SDS011;23794;48.234;8.344;2023-03-17T12:58:04;1.52;;;0.75;;
37971;SDS011;23794;48.234;8.344;2023-03-17T13:00:48;1.48;;;0.90;;
37971;SDS011;23794;48.234;8.344;2023-03-17T13:03:25;1.25;;;0.60;;
37971;SDS011;23794;48.234;8.344;2023-03-17T13:05:57;1.50;;;0.93;;
37971;SDS011;23794;48.234;8.344;2023-03-17T13:08:38;1.92;;;0.68;;
37971;SDS011;23794;48.234;8.344;2023-03-17T13:11:16;1.67;;;0.90;;
37971;SDS011;23794;48.234;8.344;2023-03-17T13:14:06;4.85;;;1.00;;
37971;SDS011;23794;48.234;8.344;2023-03-17T13:16:40;1.85;;;0.63;;
37971;SDS011;23794;48.234;8.344;2023-03-17T13:19:16;1.70;;;0.60;;
37971;SDS011;23794;48.234;8.344;2023-03-17T13:21:44;3.33;;;0.77;;
37971;SDS011;23794;48.234;8.344;2023-03-17T13:34:49;2.92;;;1.33;;
37971;SDS011;23794;48.234;8.344;2023-03-17T13:37:27;1.35;;;0.80;;
37971;SDS011;23794;48.234;8.344;2023-03-17T13:40:04;1.20;;;0.80;;
37971;SDS011;23794;48.234;8.344;2023-03-17T13:43:00;2.03;;;1.00;;
37971;SDS011;23794;48.234;8.344;2023-03-17T13:45:38;2.35;;;1.20;;
37971;SDS011;23794;48.234;8.344;2023-03-17T13:51:19;1.25;;;0.75;;
37971;SDS011;23794;48.234;8.344;2023-03-17T13:53:56;1.23;;;0.70;;
37971;SDS011;23794;48.234;8.344;2023-03-17T13:59:11;3.13;;;1.52;;
37971;SDS011;23794;48.234;8.344;2023-03-17T14:01:54;2.00;;;0.95;;
37971;SDS011;23794;48.234;8.344;2023-03-17T14:04:26;2.22;;;0.93;;
37971;SDS011;23794;48.234;8.344;2023-03-17T14:06:57;1.73;;;0.88;;
37971;SDS011;23794;48.234;8.344;2023-03-17T14:12:09;2.40;;;1.17;;
37971;SDS011;23794;48.234;8.344;2023-03-17T14:14:41;2.72;;;1.40;;
37971;SDS011;23794;48.234;8.344;2023-03-17T14:17:14;3.35;;;0.95;;
37971;SDS011;23794;48.234;8.344;2023-03-17T14:20:01;1.58;;;1.10;;
37971;SDS011;23794;48.234;8.344;2023-03-17T14:22:44;1.75;;;0.90;;
37971;SDS011;23794;48.234;8.344;2023-03-17T14:25:14;1.05;;;0.80;;
37971;SDS011;23794;48.234;8.344;2023-03-17T14:27:42;2.58;;;0.77;;
37971;SDS011;23794;48.234;8.344;2023-03-17T14:30:15;3.75;;;0.95;;
37971;SDS011;23794;48.234;8.344;2023-03-17T14:32:49;1.67;;;0.70;;
37971;SDS011;23794;48.234;8.344;2023-03-17T14:35:22;1.70;;;0.80;;
37971;SDS011;23794;48.234;8.344;2023-03-17T14:37:48;6.65;;;1.35;;
37971;SDS011;23794;48.234;8.344;2023-03-17T14:40:19;2.10;;;0.60;;
37971;SDS011;23794;48.234;8.344;2023-03-17T14:42:48;1.73;;;0.85;;
37971;SDS011;23794;48.234;8.344;2023-03-17T14:45:20;3.40;;;0.80;;
37971;SDS011;23794;48.234;8.344;2023-03-17T14:48:10;1.40;;;0.80;;
37971;SDS011;23794;48.234;8.344;2023-03-17T14:50:47;2.40;;;1.02;;
37971;SDS011;23794;48.234;8.344;2023-03-17T14:53:16;2.22;;;0.75;;
37971;SDS011;23794;48.234;8.344;2023-03-17T14:55:44;2.17;;;0.85;;
37971;SDS011;23794;48.234;8.344;2023-03-17T14:58:25;2.13;;;0.90;;
37971;SDS011;23794;48.234;8.344;2023-03-17T15:01:05;3.63;;;1.13;;
37971;SDS011;23794;48.234;8.344;2023-03-17T15:03:56;2.13;;;0.82;;
37971;SDS011;23794;48.234;8.344;2023-03-17T15:06:25;1.80;;;0.90;;
37971;SDS011;23794;48.234;8.344;2023-03-17T15:08:58;1.30;;;0.80;;
37971;SDS011;23794;48.234;8.344;2023-03-17T15:11:42;2.00;;;0.98;;
37971;SDS011;23794;48.234;8.344;2023-03-17T15:17:14;3.38;;;0.80;;
37971;SDS011;23794;48.234;8.344;2023-03-17T15:19:45;1.15;;;0.80;;
37971;SDS011;23794;48.234;8.344;2023-03-17T15:22:21;1.30;;;0.80;;
37971;SDS011;23794;48.234;8.344;2023-03-17T15:25:53;2.50;;;1.10;;
37971;SDS011;23794;48.234;8.344;2023-03-17T15:27:54;2.63;;;1.20;;
37971;SDS011;23794;48.234;8.344;2023-03-17T15:30:21;2.25;;;0.90;;
37971;SDS011;23794;48.234;8.344;2023-03-17T15:32:49;2.15;;;1.00;;
37971;SDS011;23794;48.234;8.344;2023-03-17T15:35:17;2.38;;;1.02;;
37971;SDS011;23794;48.234;8.344;2023-03-17T15:37:44;3.78;;;1.55;;
37971;SDS011;23794;48.234;8.344;2023-03-17T15:40:11;2.60;;;1.33;;
37971;SDS011;23794;48.234;8.344;2023-03-17T15:42:39;4.78;;;1.75;;
37971;SDS011;23794;48.234;8.344;2023-03-17T15:45:05;3.95;;;2.42;;
37971;SDS011;23794;48.234;8.344;2023-03-17T15:47:34;6.50;;;2.63;;
37971;SDS011;23794;48.234;8.344;2023-03-17T15:50:13;3.47;;;2.20;;
37971;SDS011;23794;48.234;8.344;2023-03-17T15:52:49;4.22;;;2.83;;
37971;SDS011;23794;48.234;8.344;2023-03-17T15:55:22;5.07;;;3.03;;
37971;SDS011;23794;48.234;8.344;2023-03-17T15:57:56;6.10;;;3.15;;
37971;SDS011;23794;48.234;8.344;2023-03-17T16:00:24;3.78;;;2.50;;
37971;SDS011;23794;48.234;8.344;2023-03-17T16:02:55;2.90;;;1.65;;
37971;SDS011;23794;48.234;8.344;2023-03-17T16:05:25;2.92;;;1.75;;
37971;SDS011;23794;48.234;8.344;2023-03-17T16:07:55;3.65;;;1.52;;
37971;SDS011;23794;48.234;8.344;2023-03-17T16:10:26;2.92;;;1.40;;
37971;SDS011;23794;48.234;8.344;2023-03-17T16:12:55;2.28;;;1.20;;
37971;SDS011;23794;48.234;8.344;2023-03-17T16:15:23;3.45;;;1.70;;
37971;SDS011;23794;48.234;8.344;2023-03-17T16:17:53;5.72;;;1.60;;
37971;SDS011;23794;48.234;8.344;2023-03-17T16:20:29;3.00;;;1.60;;
37971;SDS011;23794;48.234;8.344;2023-03-17T16:23:34;4.07;;;1.55;;
37971;SDS011;23794;48.234;8.344;2023-03-17T16:25:56;4.43;;;1.77;;